sensor_id;sensor_type;location;lat;lon;timestamp;P1;durP1;ratioP1;P2;durP2;ratioP2
6243;SDS011;3155;49.940;8.450;2023-07-22T00:01:50;864.97;;;595.10;;
6243;SDS011;3155;49.940;8.450;2023-07-22T00:04:20;866.80;;;599.80;;
6243;SDS011;3155;49.940;8.450;2023-07-22T00:06:50;869.23;;;602.43;;
6243;SDS011;3155;49.940;8.450;2023-07-22T00:09:18;863.00;;;598.92;;
6243;SDS011;3155;49.940;8.450;2023-07-22T00:11:45;866.45;;;613.10;;
6243;SDS011;3155;49.940;8.450;2023-07-22T00:14:12;862.60;;;612.28;;
6243;SDS011;3155;49.940;8.450;2023-07-22T00:16:40;866.47;;;613.67;;
6243;SDS011;3155;49.940;8.450;2023-07-22T00:19:07;864.03;;;612.17;;
6243;SDS011;3155;49.940;8.450;2023-07-22T00:21:36;861.97;;;607.08;;
6243;SDS011;3155;49.940;8.450;2023-07-22T00:24:04;858.53;;;611.50;;
6243;SDS011;3155;49.940;8.450;2023-07-22T00:26:31;859.47;;;609.20;;
6243;SDS011;3155;49.940;8.450;2023-07-22T00:28:58;857.42;;;606.70;;
6243;SDS011;3155;49.940;8.450;2023-07-22T00:31:25;856.23;;;601.97;;
6243;SDS011;3155;49.940;8.450;2023-07-22T00:33:55;858.53;;;602.13;;
6243;SDS011;3155;49.940;8.450;2023-07-22T00:36:25;857.15;;;600.88;;
6243;SDS011;3155;49.940;8.450;2023-07-22T00:38:55;854.40;;;594.08;;
6243;SDS011;3155;49.940;8.450;2023-07-22T00:41:23;855.25;;;588.65;;
6243;SDS011;3155;49.940;8.450;2023-07-22T00:44:01;851.03;;;581.27;;
6243;SDS011;3155;49.940;8.450;2023-07-22T00:46:31;850.72;;;579.38;;
6243;SDS011;3155;49.940;8.450;2023-07-22T00:48:59;839.83;;;573.10;;
6243;SDS011;3155;49.940;8.450;2023-07-22T00:51:29;842.00;;;573.15;;
6243;SDS011;3155;49.940;8.450;2023-07-22T00:53:56;827.33;;;539.93;;
6243;SDS011;3155;49.940;8.450;2023-07-22T00:56:26;839.13;;;566.90;;
6243;SDS011;3155;49.940;8.450;2023-07-22T00:58:54;841.83;;;570.13;;
6243;SDS011;3155;49.940;8.450;2023-07-22T01:01:22;845.22;;;589.10;;
6243;SDS011;3155;49.940;8.450;2023-07-22T01:03:49;843.33;;;576.37;;
6243;SDS011;3155;49.940;8.450;2023-07-22T01:06:19;839.72;;;568.97;;
6243;SDS011;3155;49.940;8.450;2023-07-22T01:08:46;840.95;;;574.85;;
6243;SDS011;3155;49.940;8.450;2023-07-22T01:11:14;846.92;;;585.53;;
6243;SDS011;3155;49.940;8.450;2023-07-22T01:13:42;844.78;;;583.10;;
6243;SDS011;3155;49.940;8.450;2023-07-22T01:16:09;839.67;;;560.88;;
6243;SDS011;3155;49.940;8.450;2023-07-22T01:18:37;841.25;;;567.70;;
6243;SDS011;3155;49.940;8.450;2023-07-22T01:21:05;843.73;;;573.87;;
6243;SDS011;3155;49.940;8.450;2023-07-22T01:23:36;842.03;;;566.55;;
6243;SDS011;3155;49.940;8.450;2023-07-22T01:26:03;845.97;;;575.30;;
6243;SDS011;3155;49.940;8.450;2023-07-22T01:28:30;846.58;;;573.00;;
6243;SDS011;3155;49.940;8.450;2023-07-22T01:30:57;847.72;;;580.50;;
6243;SDS011;3155;49.940;8.450;2023-07-22T01:33:24;848.08;;;582.97;;
6243;SDS011;3155;49.940;8.450;2023-07-22T01:35:53;846.33;;;573.75;;
6243;SDS011;3155;49.940;8.450;2023-07-22T01:38:23;845.35;;;574.92;;
6243;SDS011;3155;49.940;8.450;2023-07-22T01:40:50;839.53;;;563.45;;
6243;SDS011;3155;49.940;8.450;2023-07-22T01:43:18;840.42;;;575.38;;
6243;SDS011;3155;49.940;8.450;2023-07-22T01:45:45;843.60;;;588.92;;
6243;SDS011;3155;49.940;8.450;2023-07-22T01:48:12;833.85;;;559.00;;
6243;SDS011;3155;49.940;8.450;2023-07-22T01:50:39;801.78;;;550.40;;
6243;SDS011;3155;49.940;8.450;2023-07-22T01:53:06;802.45;;;558.45;;
6243;SDS011;3155;49.940;8.450;2023-07-22T01:55:36;795.35;;;541.45;;
6243;SDS011;3155;49.940;8.450;2023-07-22T01:58:03;789.45;;;538.47;;
6243;SDS011;3155;49.940;8.450;2023-07-22T02:00:30;786.78;;;539.67;;
6243;SDS011;3155;49.940;8.450;2023-07-22T02:02:57;786.70;;;545.95;;
6243;SDS011;3155;49.940;8.450;2023-07-22T02:05:24;784.08;;;542.22;;
6243;SDS011;3155;49.940;8.450;2023-07-22T02:07:53;781.42;;;530.25;;
6243;SDS011;3155;49.940;8.450;2023-07-22T02:10:21;785.95;;;540.67;;
6243;SDS011;3155;49.940;8.450;2023-07-22T02:12:48;775.72;;;521.25;;
6243;SDS011;3155;49.940;8.450;2023-07-22T02:15:15;779.90;;;540.43;;
6243;SDS011;3155;49.940;8.450;2023-07-22T02:17:45;786.20;;;508.75;;
6243;SDS011;3155;49.940;8.450;2023-07-22T02:20:15;780.97;;;493.02;;
6243;SDS011;3155;49.940;8.450;2023-07-22T02:22:43;779.42;;;499.83;;
6243;SDS011;3155;49.940;8.450;2023-07-22T02:25:10;780.30;;;516.58;;
6243;SDS011;3155;49.940;8.450;2023-07-22T02:27:37;779.85;;;509.27;;
6243;SDS011;3155;49.940;8.450;2023-07-22T02:30:07;765.97;;;507.70;;
6243;SDS011;3155;49.940;8.450;2023-07-22T02:32:39;766.08;;;509.85;;
6243;SDS011;3155;49.940;8.450;2023-07-22T02:35:07;767.65;;;514.03;;
6243;SDS011;3155;49.940;8.450;2023-07-22T02:37:37;765.65;;;513.55;;
6243;SDS011;3155;49.940;8.450;2023-07-22T02:40:05;763.33;;;514.75;;
6243;SDS011;3155;49.940;8.450;2023-07-22T02:42:37;753.40;;;502.48;;
6243;SDS011;3155;49.940;8.450;2023-07-22T02:45:05;749.15;;;501.45;;
6243;SDS011;3155;49.940;8.450;2023-07-22T02:47:34;738.20;;;480.27;;
6243;SDS011;3155;49.940;8.450;2023-07-22T02:50:01;730.83;;;479.40;;
6243;SDS011;3155;49.940;8.450;2023-07-22T02:52:29;722.50;;;464.23;;
6243;SDS011;3155;49.940;8.450;2023-07-22T02:57:33;730.83;;;474.05;;
6243;SDS011;3155;49.940;8.450;2023-07-22T03:00:01;729.13;;;480.75;;
6243;SDS011;3155;49.940;8.450;2023-07-22T03:02:36;727.45;;;463.20;;
6243;SDS011;3155;49.940;8.450;2023-07-22T03:05:04;727.80;;;468.60;;
6243;SDS011;3155;49.940;8.450;2023-07-22T03:07:35;733.50;;;475.95;;
6243;SDS011;3155;49.940;8.450;2023-07-22T03:10:02;733.03;;;471.35;;
6243;SDS011;3155;49.940;8.450;2023-07-22T03:12:29;729.30;;;471.98;;
6243;SDS011;3155;49.940;8.450;2023-07-22T03:14:56;734.47;;;470.38;;
6243;SDS011;3155;49.940;8.450;2023-07-22T03:17:23;733.95;;;478.33;;
6243;SDS011;3155;49.940;8.450;2023-07-22T03:19:56;722.45;;;453.05;;
6243;SDS011;3155;49.940;8.450;2023-07-22T03:22:23;721.83;;;444.80;;
6243;SDS011;3155;49.940;8.450;2023-07-22T03:24:51;709.17;;;454.27;;
6243;SDS011;3155;49.940;8.450;2023-07-22T03:27:18;703.90;;;447.38;;
6243;SDS011;3155;49.940;8.450;2023-07-22T03:29:46;694.13;;;433.37;;
6243;SDS011;3155;49.940;8.450;2023-07-22T03:32:13;694.10;;;438.85;;
6243;SDS011;3155;49.940;8.450;2023-07-22T03:34:40;700.47;;;473.90;;
6243;SDS011;3155;49.940;8.450;2023-07-22T03:37:11;693.88;;;445.45;;
6243;SDS011;3155;49.940;8.450;2023-07-22T03:39:38;690.70;;;460.95;;
6243;SDS011;3155;49.940;8.450;2023-07-22T03:42:05;688.20;;;456.33;;
6243;SDS011;3155;49.940;8.450;2023-07-22T03:44:32;684.53;;;438.10;;
6243;SDS011;3155;49.940;8.450;2023-07-22T03:46:59;706.95;;;438.30;;
6243;SDS011;3155;49.940;8.450;2023-07-22T03:49:27;711.70;;;471.20;;
6243;SDS011;3155;49.940;8.450;2023-07-22T03:51:54;719.17;;;463.67;;
6243;SDS011;3155;49.940;8.450;2023-07-22T03:54:21;723.72;;;471.67;;
6243;SDS011;3155;49.940;8.450;2023-07-22T03:56:48;713.97;;;460.15;;
6243;SDS011;3155;49.940;8.450;2023-07-22T03:59:15;718.55;;;477.02;;
6243;SDS011;3155;49.940;8.450;2023-07-22T04:01:43;717.27;;;473.00;;
6243;SDS011;3155;49.940;8.450;2023-07-22T04:04:13;712.00;;;464.33;;
6243;SDS011;3155;49.940;8.450;2023-07-22T04:06:40;707.05;;;472.88;;
6243;SDS011;3155;49.940;8.450;2023-07-22T04:09:07;700.40;;;436.53;;
6243;SDS011;3155;49.940;8.450;2023-07-22T04:11:35;703.28;;;418.95;;
6243;SDS011;3155;49.940;8.450;2023-07-22T04:14:02;698.75;;;415.73;;
6243;SDS011;3155;49.940;8.450;2023-07-22T04:16:29;695.77;;;411.33;;
6243;SDS011;3155;49.940;8.450;2023-07-22T04:18:57;680.50;;;420.15;;
6243;SDS011;3155;49.940;8.450;2023-07-22T04:21:24;685.63;;;429.47;;
6243;SDS011;3155;49.940;8.450;2023-07-22T04:23:51;683.20;;;443.33;;
6243;SDS011;3155;49.940;8.450;2023-07-22T04:26:19;694.03;;;436.50;;
6243;SDS011;3155;49.940;8.450;2023-07-22T04:28:46;697.55;;;466.45;;
6243;SDS011;3155;49.940;8.450;2023-07-22T04:31:16;696.83;;;463.98;;
6243;SDS011;3155;49.940;8.450;2023-07-22T04:33:44;692.72;;;447.48;;
6243;SDS011;3155;49.940;8.450;2023-07-22T04:36:12;702.47;;;477.00;;
6243;SDS011;3155;49.940;8.450;2023-07-22T04:38:39;698.55;;;459.48;;
6243;SDS011;3155;49.940;8.450;2023-07-22T04:41:06;708.08;;;455.60;;
6243;SDS011;3155;49.940;8.450;2023-07-22T04:43:36;706.33;;;450.37;;
6243;SDS011;3155;49.940;8.450;2023-07-22T04:46:06;712.10;;;459.13;;
6243;SDS011;3155;49.940;8.450;2023-07-22T04:48:34;719.10;;;472.05;;
6243;SDS011;3155;49.940;8.450;2023-07-22T04:51:03;758.22;;;531.33;;
6243;SDS011;3155;49.940;8.450;2023-07-22T04:53:30;803.28;;;592.83;;
6243;SDS011;3155;49.940;8.450;2023-07-22T04:55:57;832.78;;;622.50;;
6243;SDS011;3155;49.940;8.450;2023-07-22T04:58:24;862.33;;;640.22;;
6243;SDS011;3155;49.940;8.450;2023-07-22T05:00:51;864.80;;;648.17;;
6243;SDS011;3155;49.940;8.450;2023-07-22T05:03:22;875.30;;;659.07;;
6243;SDS011;3155;49.940;8.450;2023-07-22T05:05:51;883.17;;;667.38;;
6243;SDS011;3155;49.940;8.450;2023-07-22T05:08:26;897.05;;;673.22;;
6243;SDS011;3155;49.940;8.450;2023-07-22T05:10:55;900.53;;;680.00;;
6243;SDS011;3155;49.940;8.450;2023-07-22T05:13:23;901.45;;;687.30;;
6243;SDS011;3155;49.940;8.450;2023-07-22T05:15:52;911.78;;;692.97;;
6243;SDS011;3155;49.940;8.450;2023-07-22T05:18:19;917.10;;;697.13;;
6243;SDS011;3155;49.940;8.450;2023-07-22T05:20:49;911.40;;;700.43;;
6243;SDS011;3155;49.940;8.450;2023-07-22T05:23:16;917.25;;;709.33;;
6243;SDS011;3155;49.940;8.450;2023-07-22T05:25:44;923.90;;;720.58;;
6243;SDS011;3155;49.940;8.450;2023-07-22T05:28:14;940.95;;;733.67;;
6243;SDS011;3155;49.940;8.450;2023-07-22T05:30:41;946.38;;;745.03;;
6243;SDS011;3155;49.940;8.450;2023-07-22T05:33:08;948.67;;;748.25;;
6243;SDS011;3155;49.940;8.450;2023-07-22T05:35:35;947.72;;;749.55;;
6243;SDS011;3155;49.940;8.450;2023-07-22T05:38:04;953.08;;;756.72;;
6243;SDS011;3155;49.940;8.450;2023-07-22T05:40:32;958.55;;;759.72;;
6243;SDS011;3155;49.940;8.450;2023-07-22T05:42:59;971.47;;;778.25;;
6243;SDS011;3155;49.940;8.450;2023-07-22T05:45:27;979.97;;;790.45;;
6243;SDS011;3155;49.940;8.450;2023-07-22T05:47:54;987.67;;;802.53;;
6243;SDS011;3155;49.940;8.450;2023-07-22T05:50:23;992.95;;;812.83;;
6243;SDS011;3155;49.940;8.450;2023-07-22T05:52:51;997.58;;;818.53;;
6243;SDS011;3155;49.940;8.450;2023-07-22T05:55:19;1002.60;;;828.67;;
6243;SDS011;3155;49.940;8.450;2023-07-22T05:57:49;1010.80;;;841.08;;
6243;SDS011;3155;49.940;8.450;2023-07-22T06:00:16;1009.33;;;838.00;;
6243;SDS011;3155;49.940;8.450;2023-07-22T06:02:43;984.25;;;851.97;;
6243;SDS011;3155;49.940;8.450;2023-07-22T06:05:10;968.00;;;863.78;;
6243;SDS011;3155;49.940;8.450;2023-07-22T06:07:38;972.20;;;860.63;;
6243;SDS011;3155;49.940;8.450;2023-07-22T06:10:05;1005.13;;;837.78;;
6243;SDS011;3155;49.940;8.450;2023-07-22T06:12:32;968.17;;;780.03;;
6243;SDS011;3155;49.940;8.450;2023-07-22T06:14:59;931.13;;;740.95;;
6243;SDS011;3155;49.940;8.450;2023-07-22T06:17:27;876.28;;;692.78;;
6243;SDS011;3155;49.940;8.450;2023-07-22T06:19:56;833.22;;;653.33;;
6243;SDS011;3155;49.940;8.450;2023-07-22T06:22:23;814.03;;;634.85;;
6243;SDS011;3155;49.940;8.450;2023-07-22T06:24:50;756.35;;;582.30;;
6243;SDS011;3155;49.940;8.450;2023-07-22T06:27:18;703.75;;;529.42;;
6243;SDS011;3155;49.940;8.450;2023-07-22T06:29:48;637.70;;;455.42;;
6243;SDS011;3155;49.940;8.450;2023-07-22T06:32:15;584.30;;;390.45;;
6243;SDS011;3155;49.940;8.450;2023-07-22T06:34:42;558.53;;;348.15;;
6243;SDS011;3155;49.940;8.450;2023-07-22T06:37:10;528.78;;;325.80;;
6243;SDS011;3155;49.940;8.450;2023-07-22T06:39:37;526.75;;;311.42;;
6243;SDS011;3155;49.940;8.450;2023-07-22T06:42:05;527.95;;;321.17;;
6243;SDS011;3155;49.940;8.450;2023-07-22T06:44:32;538.57;;;334.80;;
6243;SDS011;3155;49.940;8.450;2023-07-22T06:47:00;545.45;;;343.40;;
6243;SDS011;3155;49.940;8.450;2023-07-22T06:49:27;533.80;;;331.35;;
6243;SDS011;3155;49.940;8.450;2023-07-22T06:51:57;538.00;;;345.30;;
6243;SDS011;3155;49.940;8.450;2023-07-22T06:54:24;534.60;;;343.45;;
6243;SDS011;3155;49.940;8.450;2023-07-22T06:56:51;542.27;;;349.10;;
6243;SDS011;3155;49.940;8.450;2023-07-22T06:59:18;535.83;;;351.70;;
6243;SDS011;3155;49.940;8.450;2023-07-22T07:01:46;537.03;;;349.40;;
6243;SDS011;3155;49.940;8.450;2023-07-22T07:04:13;542.07;;;354.70;;
6243;SDS011;3155;49.940;8.450;2023-07-22T07:06:40;552.72;;;377.38;;
6243;SDS011;3155;49.940;8.450;2023-07-22T07:09:07;558.35;;;382.35;;
6243;SDS011;3155;49.940;8.450;2023-07-22T07:11:34;559.60;;;385.83;;
6243;SDS011;3155;49.940;8.450;2023-07-22T07:14:02;554.78;;;385.08;;
6243;SDS011;3155;49.940;8.450;2023-07-22T07:16:30;561.08;;;390.70;;
6243;SDS011;3155;49.940;8.450;2023-07-22T07:18:59;579.30;;;427.07;;
6243;SDS011;3155;49.940;8.450;2023-07-22T07:21:27;557.97;;;418.38;;
6243;SDS011;3155;49.940;8.450;2023-07-22T07:23:54;528.42;;;394.00;;
6243;SDS011;3155;49.940;8.450;2023-07-22T07:26:22;533.70;;;415.37;;
6243;SDS011;3155;49.940;8.450;2023-07-22T07:28:49;634.13;;;564.17;;
6243;SDS011;3155;49.940;8.450;2023-07-22T07:31:21;797.50;;;710.95;;
6243;SDS011;3155;49.940;8.450;2023-07-22T07:33:48;889.00;;;787.37;;
6243;SDS011;3155;49.940;8.450;2023-07-22T07:36:16;932.22;;;810.10;;
6243;SDS011;3155;49.940;8.450;2023-07-22T07:38:43;948.77;;;813.53;;
6243;SDS011;3155;49.940;8.450;2023-07-22T07:41:10;966.13;;;830.33;;
6243;SDS011;3155;49.940;8.450;2023-07-22T07:43:39;965.20;;;823.83;;
6243;SDS011;3155;49.940;8.450;2023-07-22T07:46:13;974.67;;;826.38;;
6243;SDS011;3155;49.940;8.450;2023-07-22T07:48:41;974.58;;;824.70;;
6243;SDS011;3155;49.940;8.450;2023-07-22T07:51:08;978.77;;;827.70;;
6243;SDS011;3155;49.940;8.450;2023-07-22T07:53:35;978.88;;;830.25;;
6243;SDS011;3155;49.940;8.450;2023-07-22T07:56:05;989.55;;;837.88;;
6243;SDS011;3155;49.940;8.450;2023-07-22T07:58:33;1001.95;;;844.75;;
6243;SDS011;3155;49.940;8.450;2023-07-22T08:01:04;984.15;;;823.92;;
6243;SDS011;3155;49.940;8.450;2023-07-22T08:03:32;983.58;;;820.65;;
6243;SDS011;3155;49.940;8.450;2023-07-22T08:05:59;994.08;;;832.50;;
6243;SDS011;3155;49.940;8.450;2023-07-22T08:08:27;990.15;;;827.15;;
6243;SDS011;3155;49.940;8.450;2023-07-22T08:10:58;985.30;;;819.70;;
6243;SDS011;3155;49.940;8.450;2023-07-22T08:13:25;990.28;;;830.53;;
6243;SDS011;3155;49.940;8.450;2023-07-22T08:15:53;996.05;;;838.40;;
6243;SDS011;3155;49.940;8.450;2023-07-22T08:18:20;999.15;;;837.88;;
6243;SDS011;3155;49.940;8.450;2023-07-22T08:20:48;994.35;;;835.28;;
6243;SDS011;3155;49.940;8.450;2023-07-22T08:23:17;1000.13;;;833.00;;
6243;SDS011;3155;49.940;8.450;2023-07-22T08:25:45;999.40;;;837.45;;
6243;SDS011;3155;49.940;8.450;2023-07-22T08:28:12;996.75;;;827.15;;
6243;SDS011;3155;49.940;8.450;2023-07-22T08:30:39;1001.60;;;834.08;;
6243;SDS011;3155;49.940;8.450;2023-07-22T08:33:07;1004.80;;;837.42;;
6243;SDS011;3155;49.940;8.450;2023-07-22T08:35:35;1003.00;;;849.78;;
6243;SDS011;3155;49.940;8.450;2023-07-22T08:38:02;971.10;;;854.33;;
6243;SDS011;3155;49.940;8.450;2023-07-22T08:40:35;964.65;;;857.60;;
6243;SDS011;3155;49.940;8.450;2023-07-22T08:43:04;960.95;;;856.72;;
6243;SDS011;3155;49.940;8.450;2023-07-22T08:45:32;969.10;;;860.30;;
6243;SDS011;3155;49.940;8.450;2023-07-22T08:48:01;948.57;;;852.07;;
6243;SDS011;3155;49.940;8.450;2023-07-22T08:50:30;948.63;;;850.33;;
6243;SDS011;3155;49.940;8.450;2023-07-22T08:53:03;945.70;;;850.67;;
6243;SDS011;3155;49.940;8.450;2023-07-22T08:55:31;946.35;;;856.17;;
6243;SDS011;3155;49.940;8.450;2023-07-22T08:57:58;956.07;;;862.23;;
6243;SDS011;3155;49.940;8.450;2023-07-22T09:00:25;960.28;;;861.75;;
6243;SDS011;3155;49.940;8.450;2023-07-22T09:02:52;953.08;;;862.13;;
6243;SDS011;3155;49.940;8.450;2023-07-22T09:05:20;908.37;;;830.80;;
6243;SDS011;3155;49.940;8.450;2023-07-22T09:07:48;840.85;;;768.30;;
6243;SDS011;3155;49.940;8.450;2023-07-22T09:10:16;927.10;;;848.53;;
6243;SDS011;3155;49.940;8.450;2023-07-22T09:12:43;947.05;;;865.58;;
6243;SDS011;3155;49.940;8.450;2023-07-22T09:15:11;960.15;;;871.13;;
6243;SDS011;3155;49.940;8.450;2023-07-22T09:17:39;977.42;;;878.00;;
6243;SDS011;3155;49.940;8.450;2023-07-22T09:20:07;941.15;;;851.83;;
6243;SDS011;3155;49.940;8.450;2023-07-22T09:22:35;938.60;;;851.17;;
6243;SDS011;3155;49.940;8.450;2023-07-22T09:25:12;938.33;;;850.08;;
6243;SDS011;3155;49.940;8.450;2023-07-22T09:27:42;922.87;;;836.23;;
6243;SDS011;3155;49.940;8.450;2023-07-22T09:30:22;917.53;;;830.17;;
6243;SDS011;3155;49.940;8.450;2023-07-22T09:32:50;891.42;;;810.15;;
6243;SDS011;3155;49.940;8.450;2023-07-22T09:35:18;884.30;;;805.60;;
6243;SDS011;3155;49.940;8.450;2023-07-22T09:37:45;877.00;;;798.40;;
6243;SDS011;3155;49.940;8.450;2023-07-22T09:42:42;884.85;;;809.10;;
6243;SDS011;3155;49.940;8.450;2023-07-22T09:45:10;875.10;;;800.07;;
6243;SDS011;3155;49.940;8.450;2023-07-22T09:47:42;881.55;;;805.30;;
6243;SDS011;3155;49.940;8.450;2023-07-22T09:50:10;879.80;;;803.83;;
6243;SDS011;3155;49.940;8.450;2023-07-22T09:52:41;850.38;;;777.83;;
6243;SDS011;3155;49.940;8.450;2023-07-22T09:55:08;839.30;;;767.63;;
6243;SDS011;3155;49.940;8.450;2023-07-22T09:57:36;881.63;;;804.70;;
6243;SDS011;3155;49.940;8.450;2023-07-22T10:00:06;801.50;;;732.60;;
6243;SDS011;3155;49.940;8.450;2023-07-22T10:02:35;813.63;;;743.70;;
6243;SDS011;3155;49.940;8.450;2023-07-22T10:05:04;882.25;;;806.38;;
6243;SDS011;3155;49.940;8.450;2023-07-22T10:07:32;901.53;;;821.13;;
6243;SDS011;3155;49.940;8.450;2023-07-22T10:10:01;925.40;;;842.58;;
6243;SDS011;3155;49.940;8.450;2023-07-22T10:12:32;914.35;;;834.15;;
6243;SDS011;3155;49.940;8.450;2023-07-22T10:14:59;837.65;;;765.55;;
6243;SDS011;3155;49.940;8.450;2023-07-22T10:17:27;632.70;;;573.43;;
6243;SDS011;3155;49.940;8.450;2023-07-22T10:19:55;604.17;;;546.97;;
6243;SDS011;3155;49.940;8.450;2023-07-22T10:22:23;550.35;;;497.13;;
6243;SDS011;3155;49.940;8.450;2023-07-22T10:24:55;502.30;;;452.52;;
6243;SDS011;3155;49.940;8.450;2023-07-22T10:27:24;494.42;;;445.33;;
6243;SDS011;3155;49.940;8.450;2023-07-22T10:29:52;494.98;;;446.00;;
6243;SDS011;3155;49.940;8.450;2023-07-22T10:32:21;973.43;;;890.57;;
6243;SDS011;3155;49.940;8.450;2023-07-22T10:34:48;970.78;;;886.70;;
6243;SDS011;3155;49.940;8.450;2023-07-22T10:37:19;897.47;;;821.58;;
6243;SDS011;3155;49.940;8.450;2023-07-22T10:39:50;903.83;;;827.50;;
6243;SDS011;3155;49.940;8.450;2023-07-22T10:42:24;927.85;;;848.97;;
6243;SDS011;3155;49.940;8.450;2023-07-22T10:44:51;870.55;;;796.60;;
6243;SDS011;3155;49.940;8.450;2023-07-22T10:47:40;779.17;;;710.72;;
6243;SDS011;3155;49.940;8.450;2023-07-22T10:50:06;726.73;;;661.53;;
6243;SDS011;3155;49.940;8.450;2023-07-22T10:52:41;708.17;;;644.03;;
6243;SDS011;3155;49.940;8.450;2023-07-22T10:55:15;760.55;;;693.42;;
6243;SDS011;3155;49.940;8.450;2023-07-22T10:57:53;702.83;;;639.00;;
6243;SDS011;3155;49.940;8.450;2023-07-22T11:00:22;729.33;;;664.05;;
6243;SDS011;3155;49.940;8.450;2023-07-22T11:05:48;671.53;;;609.75;;
6243;SDS011;3155;49.940;8.450;2023-07-22T11:08:17;559.95;;;505.60;;
6243;SDS011;3155;49.940;8.450;2023-07-22T11:10:53;535.25;;;482.65;;
6243;SDS011;3155;49.940;8.450;2023-07-22T11:13:27;566.58;;;511.38;;
6243;SDS011;3155;49.940;8.450;2023-07-22T11:16:00;527.03;;;474.70;;
6243;SDS011;3155;49.940;8.450;2023-07-22T11:18:40;523.17;;;471.17;;
6243;SDS011;3155;49.940;8.450;2023-07-22T11:21:09;485.33;;;436.13;;
6243;SDS011;3155;49.940;8.450;2023-07-22T11:23:40;537.50;;;484.45;;
6243;SDS011;3155;49.940;8.450;2023-07-22T11:26:07;525.55;;;473.33;;
6243;SDS011;3155;49.940;8.450;2023-07-22T11:28:34;502.35;;;451.77;;
6243;SDS011;3155;49.940;8.450;2023-07-22T11:31:01;494.13;;;444.33;;
6243;SDS011;3155;49.940;8.450;2023-07-22T11:33:37;583.43;;;527.13;;
6243;SDS011;3155;49.940;8.450;2023-07-22T11:36:08;728.17;;;662.58;;
6243;SDS011;3155;49.940;8.450;2023-07-22T11:38:36;719.00;;;654.07;;
6243;SDS011;3155;49.940;8.450;2023-07-22T11:41:06;646.33;;;585.95;;
6243;SDS011;3155;49.940;8.450;2023-07-22T11:43:33;585.03;;;529.13;;
6243;SDS011;3155;49.940;8.450;2023-07-22T11:46:07;645.22;;;585.35;;
6243;SDS011;3155;49.940;8.450;2023-07-22T11:48:34;591.20;;;535.20;;
6243;SDS011;3155;49.940;8.450;2023-07-22T11:51:01;633.42;;;574.22;;
6243;SDS011;3155;49.940;8.450;2023-07-22T11:53:29;557.05;;;502.75;;
6243;SDS011;3155;49.940;8.450;2023-07-22T11:55:57;601.33;;;544.13;;
6243;SDS011;3155;49.940;8.450;2023-07-22T11:58:27;607.53;;;550.23;;
6243;SDS011;3155;49.940;8.450;2023-07-22T12:01:10;630.00;;;571.22;;
6243;SDS011;3155;49.940;8.450;2023-07-22T12:03:37;622.08;;;563.65;;
6243;SDS011;3155;49.940;8.450;2023-07-22T12:06:06;626.72;;;567.88;;
6243;SDS011;3155;49.940;8.450;2023-07-22T12:08:33;609.28;;;551.88;;
6243;SDS011;3155;49.940;8.450;2023-07-22T12:11:02;576.30;;;521.13;;
6243;SDS011;3155;49.940;8.450;2023-07-22T12:13:35;585.60;;;529.63;;
6243;SDS011;3155;49.940;8.450;2023-07-22T12:16:03;585.05;;;529.05;;
6243;SDS011;3155;49.940;8.450;2023-07-22T12:18:46;635.50;;;576.17;;
6243;SDS011;3155;49.940;8.450;2023-07-22T12:21:13;579.05;;;523.50;;
6243;SDS011;3155;49.940;8.450;2023-07-22T12:23:41;591.67;;;535.55;;
6243;SDS011;3155;49.940;8.450;2023-07-22T12:26:09;589.42;;;533.08;;
6243;SDS011;3155;49.940;8.450;2023-07-22T12:28:36;731.33;;;665.83;;
6243;SDS011;3155;49.940;8.450;2023-07-22T12:31:03;610.90;;;553.70;;
6243;SDS011;3155;49.940;8.450;2023-07-22T12:33:30;604.88;;;548.10;;
6243;SDS011;3155;49.940;8.450;2023-07-22T12:36:00;636.83;;;577.42;;
6243;SDS011;3155;49.940;8.450;2023-07-22T12:38:31;541.17;;;488.77;;
6243;SDS011;3155;49.940;8.450;2023-07-22T12:40:59;517.23;;;466.63;;
6243;SDS011;3155;49.940;8.450;2023-07-22T12:43:29;522.60;;;471.65;;
6243;SDS011;3155;49.940;8.450;2023-07-22T12:45:56;662.13;;;601.10;;
6243;SDS011;3155;49.940;8.450;2023-07-22T12:48:24;920.08;;;842.55;;
6243;SDS011;3155;49.940;8.450;2023-07-22T12:50:51;911.93;;;834.73;;
6243;SDS011;3155;49.940;8.450;2023-07-22T12:53:18;875.08;;;800.17;;
6243;SDS011;3155;49.940;8.450;2023-07-22T12:55:45;847.42;;;774.05;;
6243;SDS011;3155;49.940;8.450;2023-07-22T12:58:13;825.83;;;753.72;;
6243;SDS011;3155;49.940;8.450;2023-07-22T13:00:40;780.65;;;711.58;;
6243;SDS011;3155;49.940;8.450;2023-07-22T13:03:07;721.88;;;656.75;;
6243;SDS011;3155;49.940;8.450;2023-07-22T13:05:35;738.70;;;672.13;;
6243;SDS011;3155;49.940;8.450;2023-07-22T13:08:02;799.92;;;729.45;;
6243;SDS011;3155;49.940;8.450;2023-07-22T13:10:29;724.42;;;658.95;;
6243;SDS011;3155;49.940;8.450;2023-07-22T13:12:58;768.55;;;700.03;;
6243;SDS011;3155;49.940;8.450;2023-07-22T13:15:25;748.92;;;681.67;;
6243;SDS011;3155;49.940;8.450;2023-07-22T13:17:52;780.88;;;711.72;;
6243;SDS011;3155;49.940;8.450;2023-07-22T13:20:19;812.65;;;741.28;;
6243;SDS011;3155;49.940;8.450;2023-07-22T13:22:46;835.08;;;762.35;;
6243;SDS011;3155;49.940;8.450;2023-07-22T13:25:14;774.50;;;705.40;;
6243;SDS011;3155;49.940;8.450;2023-07-22T13:27:41;831.53;;;759.03;;
6243;SDS011;3155;49.940;8.450;2023-07-22T13:30:08;736.25;;;670.08;;
6243;SDS011;3155;49.940;8.450;2023-07-22T13:32:36;682.03;;;619.65;;
6243;SDS011;3155;49.940;8.450;2023-07-22T13:35:06;595.70;;;539.58;;
6243;SDS011;3155;49.940;8.450;2023-07-22T13:37:34;516.90;;;466.50;;
6243;SDS011;3155;49.940;8.450;2023-07-22T13:40:01;535.15;;;483.30;;
6243;SDS011;3155;49.940;8.450;2023-07-22T13:42:31;478.60;;;431.58;;
6243;SDS011;3155;49.940;8.450;2023-07-22T13:44:58;479.67;;;432.92;;
6243;SDS011;3155;49.940;8.450;2023-07-22T13:47:25;516.85;;;466.58;;
6243;SDS011;3155;49.940;8.450;2023-07-22T13:49:54;596.55;;;540.67;;
6243;SDS011;3155;49.940;8.450;2023-07-22T13:52:21;482.90;;;435.80;;
6243;SDS011;3155;49.940;8.450;2023-07-22T13:54:48;387.40;;;351.58;;
6243;SDS011;3155;49.940;8.450;2023-07-22T13:57:15;360.63;;;328.27;;
6243;SDS011;3155;49.940;8.450;2023-07-22T13:59:42;419.65;;;380.10;;
6243;SDS011;3155;49.940;8.450;2023-07-22T14:02:10;453.65;;;409.90;;
6243;SDS011;3155;49.940;8.450;2023-07-22T14:04:37;449.73;;;406.05;;
6243;SDS011;3155;49.940;8.450;2023-07-22T14:07:05;480.70;;;433.73;;
6243;SDS011;3155;49.940;8.450;2023-07-22T14:09:32;567.13;;;513.25;;
6243;SDS011;3155;49.940;8.450;2023-07-22T14:11:59;627.10;;;569.10;;
6243;SDS011;3155;49.940;8.450;2023-07-22T14:14:29;539.38;;;487.58;;
6243;SDS011;3155;49.940;8.450;2023-07-22T14:16:57;517.78;;;467.70;;
6243;SDS011;3155;49.940;8.450;2023-07-22T14:19:24;518.30;;;468.15;;
6243;SDS011;3155;49.940;8.450;2023-07-22T14:21:51;490.77;;;442.92;;
6243;SDS011;3155;49.940;8.450;2023-07-22T14:24:18;521.47;;;470.98;;
6243;SDS011;3155;49.940;8.450;2023-07-22T14:26:46;471.10;;;425.15;;
6243;SDS011;3155;49.940;8.450;2023-07-22T14:29:13;455.30;;;411.27;;
6243;SDS011;3155;49.940;8.450;2023-07-22T14:31:41;435.52;;;393.75;;
6243;SDS011;3155;49.940;8.450;2023-07-22T14:34:09;452.13;;;408.43;;
6243;SDS011;3155;49.940;8.450;2023-07-22T14:36:36;441.15;;;398.88;;